| time (UTC) | temp F | wind direction | speed MPH | gust MPH | rain 1hr in | rain 24hr in | rain mn in | humidity % | barometer mb |
| 20260906103101 | 75 | 0 | 0.0 | 2.0 | 0.00 | 0.00 | 0.00 | 97 | 1012.4 |
| 20260906101556 | 75 | 0 | 0.0 | 2.0 | 0.00 | 0.00 | 0.00 | 98 | 1012.3 |
| 20260906094609 | 75 | 0 | 0.0 | 1.0 | 0.00 | 0.00 | 0.00 | 97 | 1012.5 |
| 20260906093117 | 74 | 0 | 0.0 | 2.0 | 0.00 | 0.00 | 0.00 | 97 | 1012.4 |
| 20260906091559 | 75 | 180 | 0.0 | 2.0 | 0.00 | 0.00 | 0.00 | 97 | 1012.2 |
| 20260906090135 | 75 | 0 | 0.0 | 1.0 | 0.00 | 0.00 | 0.00 | 97 | 1012.2 |
| 20260906084620 | 75 | 0 | 0.0 | 2.0 | 0.00 | 0.00 | 0.00 | 96 | 1012.0 |
| 20260906083059 | 75 | 0 | 0.0 | 1.0 | 0.00 | 0.00 | 0.00 | 96 | 1011.8 |
| 20260906081602 | 75 | 0 | 0.0 | 2.0 | 0.00 | 0.00 | 0.00 | 96 | 1011.7 |
| 20260906080107 | 75 | 0 | 0.0 | 1.0 | 0.00 | 0.00 | 0.00 | 96 | 1011.8 |
| 20260906074603 | 75 | 0 | 0.0 | 2.0 | 0.00 | 0.00 | 0.00 | 96 | 1011.7 |
| 20260906073101 | 76 | 180 | 1.0 | 2.0 | 0.00 | 0.00 | 0.00 | 96 | 1011.8 |
| 20260906071559 | 76 | 0 | 0.0 | 1.0 | 0.00 | 0.00 | 0.00 | 96 | 1011.9 |
| 20260906070058 | 76 | 180 | 0.0 | 1.0 | 0.00 | 0.00 | 0.00 | 96 | 1011.8 |
| 20260906064602 | 76 | 0 | 0.0 | 1.0 | 0.00 | 0.00 | 0.00 | 96 | 1011.8 |
| 20260906063100 | 77 | 0 | 0.0 | 1.0 | 0.00 | 0.00 | 0.00 | 95 | 1011.5 |
| 20260906061606 | 77 | 180 | 0.0 | 1.0 | 0.00 | 0.00 | 0.00 | 95 | 1011.7 |
| 20260906054606 | 77 | 0 | 0.0 | 2.0 | 0.00 | 0.00 | 0.00 | 95 | 1012.0 |
| 20260906053119 | 78 | 0 | 0.0 | 2.0 | 0.00 | 0.00 | 0.00 | 95 | 1012.1 |
| 20260906051559 | 78 | 180 | 1.0 | 4.0 | 0.00 | 0.00 | 0.00 | 95 | 1012.3 |
| 20260906050101 | 78 | 183 | 1.0 | 3.0 | 0.00 | 0.00 | 0.00 | 95 | 1012.2 |
| 20260906044621 | 78 | 0 | 0.0 | 1.0 | 0.00 | 0.00 | 0.00 | 94 | 1012.2 |
| 20260906043101 | 78 | 293 | 1.0 | 2.0 | 0.00 | 0.00 | 0.00 | 94 | 1012.0 |
| 20260906041558 | 78 | 0 | 0.0 | 1.0 | 0.00 | 0.00 | 0.00 | 93 | 1012.3 |
| 20260906040108 | 79 | 293 | 1.0 | 2.0 | 0.00 | 0.00 | 0.00 | 94 | 1012.6 |
| 20260906034608 | 78 | 0 | 0.0 | 1.0 | 0.00 | 0.00 | 0.00 | 94 | 1012.8 |
| 20260906033103 | 79 | 8 | 0.0 | 2.0 | 0.00 | 0.00 | 0.00 | 93 | 1013.0 |
| 20260906031556 | 79 | 0 | 0.0 | 1.0 | 0.00 | 0.00 | 0.00 | 93 | 1013.1 |
| 20260906024624 | 79 | 232 | 1.0 | 3.0 | 0.00 | 0.01 | 0.00 | 93 | 1012.5 |
| 20260906023105 | 79 | 232 | 0.0 | 2.0 | 0.00 | 0.01 | 0.00 | 92 | 1012.2 |
| 20260906021600 | 80 | 232 | 1.0 | 3.0 | 0.00 | 0.01 | 0.00 | 91 | 1012.2 |
| 20260906020105 | 80 | 223 | 0.0 | 4.0 | 0.00 | 0.01 | 0.00 | 90 | 1011.9 |
| 20260906014604 | 80 | 201 | 2.0 | 6.0 | 0.00 | 0.01 | 0.00 | 91 | 1011.8 |
| 20260906013106 | 80 | 199 | 1.0 | 2.0 | 0.00 | 0.01 | 0.00 | 90 | 1011.9 |
| 20260906011604 | 81 | 199 | 0.0 | 2.0 | 0.00 | 0.01 | 0.00 | 88 | 1011.7 |
| 20260906010131 | 82 | 199 | 0.0 | 1.0 | 0.00 | 0.01 | 0.00 | 87 | 1011.7 |
| 20260906004605 | 83 | 0 | 0.0 | 1.0 | 0.00 | 0.01 | 0.00 | 85 | 1011.4 |
| 20260906003107 | 84 | 0 | 0.0 | 0.0 | 0.00 | 0.01 | 0.00 | 83 | 1011.3 |
| 20260906001609 | 84 | 199 | 1.0 | 3.0 | 0.00 | 0.01 | 0.00 | 82 | 1011.2 |
| 20260906000101 | 86 | 320 | 0.0 | 1.0 | 0.00 | 0.01 | 0.00 | 80 | 1011.4 |
| 20260905234557 | 87 | 0 | 0.0 | 1.0 | 0.00 | 0.01 | 0.00 | 77 | 1011.4 |
| 20260905233103 | 88 | 43 | 1.0 | 2.0 | 0.00 | 0.01 | 0.00 | 73 | 1011.5 |
| 20260905231600 | 89 | 43 | 1.0 | 2.0 | 0.00 | 0.01 | 0.00 | 69 | 1011.3 |
| 20260905230122 | 89 | 34 | 2.0 | 5.0 | 0.00 | 0.01 | 0.00 | 68 | 1011.5 |
| 20260905224604 | 89 | 54 | 0.0 | 6.0 | 0.00 | 0.01 | 0.00 | 68 | 1011.4 |
| 20260905223100 | 90 | 28 | 1.0 | 5.0 | 0.00 | 0.01 | 0.00 | 70 | 1011.6 |
| 20260905221601 | 90 | 107 | 1.0 | 4.0 | 0.00 | 0.01 | 0.00 | 69 | 1011.3 |
| 20260905220106 | 91 | 139 | 1.0 | 6.0 | 0.00 | 0.01 | 0.00 | 67 | 1011.5 |
| 20260905214601 | 91 | 43 | 3.0 | 7.0 | 0.00 | 0.06 | 0.00 | 67 | 1012.0 |
| 20260905213102 | 92 | 74 | 4.0 | 8.0 | 0.00 | 0.06 | 0.00 | 66 | 1012.1 |
| 20260905211559 | 91 | 161 | 2.0 | 8.0 | 0.00 | 0.06 | 0.00 | 67 | 1012.2 |
| 20260905210108 | 91 | 73 | 2.0 | 10.0 | 0.00 | 0.06 | 0.00 | 69 | 1012.2 |
| 20260905204607 | 91 | 358 | 3.0 | 7.0 | 0.00 | 0.23 | 0.00 | 67 | 1012.5 |
| 20260905203102 | 90 | 49 | 1.0 | 6.0 | 0.00 | 0.23 | 0.00 | 69 | 1012.7 |
| 20260905201608 | 90 | 22 | 2.0 | 9.0 | 0.00 | 0.23 | 0.00 | 69 | 1012.8 |
| 20260905194600 | 88 | 57 | 3.0 | 8.0 | 0.00 | 0.82 | 0.00 | 72 | 1012.9 |
| 20260905193057 | 89 | 115 | 6.0 | 9.0 | 0.00 | 0.82 | 0.00 | 72 | 1013.0 |
| 20260905191603 | 89 | 139 | 3.0 | 10.0 | 0.00 | 0.82 | 0.00 | 72 | 1013.0 |
| 20260905190104 | 89 | 60 | 4.0 | 11.0 | 0.00 | 0.82 | 0.00 | 71 | 1013.5 |
| 20260905184612 | 88 | 81 | 4.0 | 8.0 | 0.00 | 0.82 | 0.00 | 74 | 1013.8 |
| 20260905183114 | 88 | 103 | 4.0 | 11.0 | 0.00 | 0.82 | 0.00 | 73 | 1014.2 |
| 20260905181604 | 88 | 55 | 5.0 | 11.0 | 0.00 | 0.82 | 0.00 | 74 | 1014.3 |
| 20260905180105 | 88 | 43 | 1.0 | 9.0 | 0.00 | 0.82 | 0.00 | 76 | 1014.3 |
| 20260905174600 | 88 | 145 | 4.0 | 10.0 | 0.00 | 0.82 | 0.00 | 75 | 1014.6 |
| 20260905173059 | 88 | 45 | 4.0 | 9.0 | 0.00 | 0.82 | 0.00 | 74 | 1014.7 |
| 20260905171559 | 88 | 67 | 5.0 | 9.0 | 0.00 | 0.82 | 0.00 | 74 | 1014.8 |
| 20260905170112 | 88 | 34 | 3.0 | 7.0 | 0.00 | 0.82 | 0.00 | 71 | 1014.9 |
| 20260905164606 | 89 | 61 | 1.0 | 6.0 | 0.00 | 0.82 | 0.00 | 72 | 1015.0 |
| 20260905163058 | 88 | 46 | 2.0 | 9.0 | 0.00 | 0.82 | 0.00 | 74 | 1015.2 |
| 20260905161557 | 87 | 216 | 2.0 | 5.0 | 0.00 | 0.82 | 0.00 | 79 | 1015.1 |
| 20260905160055 | 86 | 227 | 2.0 | 6.0 | 0.00 | 0.82 | 0.00 | 79 | 1015.4 |
| 20260905154602 | 85 | 266 | 1.0 | 5.0 | 0.00 | 0.91 | 0.00 | 84 | 1015.2 |
| 20260905153058 | 84 | 173 | 3.0 | 6.0 | 0.00 | 0.91 | 0.00 | 85 | 1015.3 |
| 20260905151558 | 82 | 0 | 1.0 | 5.0 | 0.00 | 0.91 | 0.00 | 89 | 1015.3 |
| 20260905144559 | 79 | 0 | 1.0 | 5.0 | 0.00 | 0.91 | 0.00 | 98 | 1015.1 |
| 20260905143059 | 78 | 179 | 1.0 | 5.0 | 0.00 | 0.91 | 0.00 | 99 | 1015.1 |
| 20260905141605 | 77 | 205 | 1.0 | 3.0 | 0.00 | 0.91 | 0.00 | 99 | 1015.1 |
| 20260905140126 | 76 | 167 | 2.0 | 3.0 | 0.00 | 0.91 | 0.00 | 99 | 1014.9 |
| 20260905134607 | 76 | 0 | 0.0 | 2.0 | 0.00 | 0.91 | 0.00 | 99 | 1015.1 |
| 20260905133057 | 76 | 70 | 1.0 | 3.0 | 0.00 | 0.91 | 0.00 | 99 | 1015.1 |
| 20260905131625 | 75 | 345 | 0.0 | 2.0 | 0.00 | 0.91 | 0.00 | 99 | 1015.0 |
| 20260905130100 | 75 | 345 | 0.0 | 4.0 | 0.00 | 0.91 | 0.00 | 99 | 1015.0 |
| 20260905124605 | 74 | 345 | 1.0 | 3.0 | 0.00 | 0.91 | 0.00 | 99 | 1014.6 |
| 20260905123110 | 74 | 345 | 2.0 | 5.0 | 0.00 | 0.91 | 0.00 | 99 | 1014.5 |
| 20260905121602 | 74 | 345 | 1.0 | 3.0 | 0.00 | 0.91 | 0.00 | 99 | 1014.5 |
| 20260905120100 | 74 | 2 | 0.0 | 2.0 | 0.00 | 0.91 | 0.00 | 99 | 1014.3 |
| 20260905114559 | 74 | 0 | 0.0 | 2.0 | 0.00 | 0.91 | 0.00 | 99 | 1014.2 |
| 20260905113106 | 74 | 0 | 0.0 | 2.0 | 0.00 | 0.91 | 0.00 | 99 | 1014.4 |
| 20260905111607 | 74 | 354 | 0.0 | 2.0 | 0.00 | 0.91 | 0.00 | 99 | 1014.2 |
| 20260905110101 | 74 | 0 | 0.0 | 1.0 | 0.00 | 0.91 | 0.00 | 98 | 1014.3 |
| 20260905104610 | 74 | 354 | 0.0 | 1.0 | 0.00 | 0.91 | 0.00 | 99 | 1014.3 |